createdAt,value
2017-10-21T03:36:25.335Z,0
2017-10-21T03:37:27.692Z,0
2017-10-21T03:38:29.521Z,0
2017-10-21T03:39:31.078Z,0
2017-10-21T03:40:32.844Z,0
2017-10-21T03:41:34.911Z,0
2017-10-21T03:42:36.630Z,0
2017-10-21T03:43:38.432Z,0
2017-10-21T03:44:40.267Z,0
2017-10-21T03:45:42.596Z,0
2017-10-21T03:46:44.231Z,0
2017-10-21T03:47:46.431Z,0
2017-10-21T03:48:48.381Z,0
2017-10-21T03:49:50.127Z,0
2017-10-21T03:50:51.849Z,0
2017-10-21T03:51:53.913Z,0
2017-10-21T03:52:55.689Z,0
2017-10-21T03:53:57.574Z,0
2017-10-21T03:54:59.406Z,0
2017-10-21T03:56:01.555Z,0
2017-10-21T03:57:03.326Z,0
2017-10-21T03:58:05.201Z,0
2017-10-21T03:59:06.906Z,0
2017-10-21T04:00:08.871Z,0
2017-10-21T04:01:10.911Z,0
2017-10-21T04:02:13.166Z,0
2017-10-21T04:03:15.400Z,0
2017-10-21T04:04:17.100Z,0
2017-10-21T04:05:19.222Z,0
2017-10-21T04:06:21.076Z,0
2017-10-21T04:07:22.934Z,0
2017-10-21T04:08:24.548Z,0
2017-10-21T04:09:26.254Z,0
2017-10-21T04:10:28.154Z,0
2017-10-21T04:11:30.189Z,0
2017-10-21T04:12:31.916Z,0
2017-10-21T04:13:33.969Z,0
2017-10-21T04:14:35.774Z,0
2017-10-21T04:15:37.664Z,0
2017-10-21T04:16:39.375Z,0
2017-10-21T04:17:40.933Z,0
2017-10-21T04:18:42.416Z,0
2017-10-21T04:19:44.157Z,0
2017-10-21T04:20:45.983Z,0
2017-10-21T04:21:47.876Z,0
2017-10-21T04:22:49.644Z,0
2017-10-21T04:23:51.619Z,0
2017-10-21T04:24:53.502Z,0
2017-10-21T04:25:55.460Z,0
2017-10-21T04:26:57.579Z,0
2017-10-21T04:27:59.588Z,0
2017-10-21T04:29:01.079Z,0
2017-10-21T04:30:03.002Z,0
2017-10-21T04:31:04.765Z,0
2017-10-21T04:32:06.612Z,0
2017-10-21T04:33:08.574Z,0
2017-10-21T04:34:10.053Z,0
2017-10-21T04:35:11.811Z,0
2017-10-21T04:36:13.305Z,0
2017-10-21T04:37:15.201Z,0
2017-10-21T04:38:17.232Z,0
2017-10-21T04:39:19.361Z,0
2017-10-21T04:40:21.382Z,0
2017-10-21T04:41:23.221Z,0
2017-10-21T04:42:24.946Z,0
2017-10-21T04:43:26.895Z,0
2017-10-21T04:44:28.978Z,0
2017-10-21T04:45:30.736Z,0
2017-10-21T04:46:32.411Z,0
2017-10-21T04:47:34.377Z,0
2017-10-21T04:48:36.305Z,0
2017-10-21T04:49:38.210Z,0
2017-10-21T04:50:40.320Z,0
2017-10-21T04:51:42.340Z,0
2017-10-21T04:52:44.484Z,0
2017-10-21T04:53:46.268Z,0
2017-10-21T04:54:48.275Z,0
2017-10-21T04:55:50.089Z,0
2017-10-21T04:56:52.049Z,0
2017-10-21T04:57:53.892Z,0
2017-10-21T04:58:55.777Z,0
2017-10-21T04:59:57.457Z,0
2017-10-21T05:00:59.349Z,0
2017-10-21T05:02:01.240Z,0
2017-10-21T05:03:03.257Z,0
2017-10-21T05:04:04.930Z,0
2017-10-21T05:05:07.017Z,0
2017-10-21T05:06:09.041Z,0
2017-10-21T05:07:10.630Z,0
2017-10-21T05:08:12.512Z,0
2017-10-21T05:09:14.109Z,0
2017-10-21T05:10:16.040Z,0
2017-10-21T05:11:17.908Z,0
2017-10-21T05:12:19.642Z,0
2017-10-21T05:13:21.611Z,0
2017-10-21T05:14:23.019Z,0
2017-10-21T05:15:24.640Z,0
2017-10-21T05:16:26.425Z,0
2017-10-21T05:17:28.326Z,0
2017-10-21T05:18:30.390Z,0
2017-10-21T05:19:32.398Z,0
2017-10-21T05:20:34.202Z,0
2017-10-21T05:21:35.837Z,0
2017-10-21T05:22:37.531Z,0
2017-10-21T05:23:39.480Z,0
2017-10-21T05:24:41.462Z,0
2017-10-21T05:25:43.227Z,0
2017-10-21T05:26:45.287Z,0
2017-10-21T05:27:46.774Z,0
2017-10-21T05:28:48.596Z,0
2017-10-21T05:29:50.354Z,0
2017-10-21T05:30:52.249Z,0
2017-10-21T05:31:53.736Z,0
2017-10-21T05:32:55.240Z,4
2017-10-21T05:33:56.743Z,4
2017-10-21T05:34:58.665Z,0
2017-10-21T05:36:00.838Z,4
2017-10-21T05:37:02.281Z,8
2017-10-21T05:38:04.478Z,8
2017-10-21T05:39:06.552Z,8
2017-10-21T05:40:08.740Z,8
2017-10-21T05:41:10.880Z,12
2017-10-21T05:42:13.009Z,12
2017-10-21T05:43:15.190Z,16
2017-10-21T05:44:16.662Z,24
2017-10-21T05:45:18.113Z,24
2017-10-21T05:46:20.046Z,28
2017-10-21T05:47:22.175Z,36
2017-10-21T05:48:24.187Z,44
2017-10-21T05:49:26.234Z,52
2017-10-21T05:50:28.054Z,60
2017-10-21T05:51:30.032Z,68
2017-10-21T05:52:32.099Z,80
2017-10-21T05:53:34.052Z,88
2017-10-21T05:54:36.063Z,100
2017-10-21T05:55:38.251Z,116
2017-10-21T05:56:40.312Z,128
2017-10-21T05:57:42.366Z,148
2017-10-21T05:58:44.396Z,164
2017-10-21T05:59:46.567Z,180
2017-10-21T06:00:48.145Z,196
2017-10-21T06:01:49.645Z,220
2017-10-21T06:02:51.137Z,240
2017-10-21T06:03:53.146Z,264
2017-10-21T06:04:55.256Z,288
2017-10-21T06:05:56.722Z,308
2017-10-21T06:06:58.647Z,336
2017-10-21T06:08:00.737Z,372
2017-10-21T06:09:02.849Z,404
2017-10-21T06:10:04.875Z,432
2017-10-21T06:11:06.772Z,456
2017-10-21T06:12:08.899Z,488
2017-10-21T06:13:10.734Z,516
2017-10-21T06:14:12.990Z,552
2017-10-21T06:15:15.022Z,580
2017-10-21T06:16:17.031Z,612
2017-10-21T06:17:19.136Z,636
2017-10-21T06:18:20.706Z,668
2017-10-21T06:19:22.801Z,708
2017-10-21T06:20:24.893Z,744
2017-10-21T06:21:26.620Z,780
2017-10-21T06:22:28.535Z,812
2017-10-21T06:23:30.243Z,840
2017-10-21T06:24:32.467Z,872
2017-10-21T06:25:34.535Z,912
2017-10-21T06:26:36.693Z,952
2017-10-21T06:27:38.768Z,992
2017-10-21T06:28:40.274Z,1044
2017-10-21T06:29:42.152Z,1092
2017-10-21T06:30:44.129Z,1148
2017-10-21T06:31:46.268Z,1212
2017-10-21T06:32:48.260Z,1284
2017-10-21T06:33:50.181Z,1340
2017-10-21T06:34:51.717Z,1392
2017-10-21T06:35:53.895Z,1448
2017-10-21T06:36:55.807Z,1496
2017-10-21T06:37:58.333Z,1556
2017-10-21T06:39:00.427Z,1636
2017-10-21T06:40:02.576Z,1720
2017-10-21T06:41:04.012Z,1816
2017-10-21T06:42:05.467Z,2036
2017-10-21T06:43:07.260Z,2024
2017-10-21T06:44:08.726Z,2028
2017-10-21T06:45:10.492Z,2036
2017-10-21T06:46:12.315Z,2012
2017-10-21T06:47:13.792Z,1992
2017-10-21T06:48:16.017Z,1972
2017-10-21T06:49:17.599Z,1992
2017-10-21T06:50:19.701Z,2000
2017-10-21T06:51:21.767Z,2040
2017-10-21T06:52:23.719Z,2060
2017-10-21T06:53:25.833Z,2092
2017-10-21T06:54:28.057Z,2140
2017-10-21T06:55:29.547Z,2152
2017-10-21T06:56:31.760Z,2168
2017-10-21T06:57:33.185Z,2240
2017-10-21T06:58:34.769Z,2436
2017-10-21T06:59:36.964Z,2596
2017-10-21T07:00:38.498Z,2800
2017-10-21T07:01:40.310Z,3164
2017-10-21T07:02:41.780Z,3868
2017-10-21T07:03:43.890Z,4872
2017-10-21T07:04:45.680Z,5724
2017-10-21T07:05:47.619Z,5792
2017-10-21T07:06:49.092Z,5660
2017-10-21T07:07:50.535Z,4844
2017-10-21T07:08:52.046Z,4532
2017-10-21T07:09:53.532Z,4728
2017-10-21T07:10:56.083Z,3224
2017-10-21T07:11:58.367Z,3348
2017-10-21T07:13:00.388Z,3504
2017-10-21T07:14:02.603Z,3916
2017-10-21T07:15:04.707Z,4024
2017-10-21T07:16:07.012Z,4112
2017-10-21T07:17:09.088Z,3820
2017-10-21T07:18:10.619Z,3672
2017-10-21T07:19:12.644Z,3676
2017-10-21T07:20:14.144Z,3928
2017-10-21T07:21:15.893Z,4504
2017-10-21T07:22:17.368Z,5028
2017-10-21T07:23:19.852Z,5092
2017-10-21T07:24:21.933Z,5084
2017-10-21T07:25:23.833Z,4752
2017-10-21T07:26:25.983Z,4332
2017-10-21T07:27:28.046Z,3988
2017-10-21T07:28:30.062Z,3688
2017-10-21T07:29:32.101Z,3584
2017-10-21T07:30:34.409Z,3572
2017-10-21T07:31:36.650Z,3564
2017-10-21T07:32:38.878Z,3580
2017-10-21T07:33:40.863Z,3588
2017-10-21T07:34:42.306Z,3344
2017-10-21T07:35:44.653Z,3280
2017-10-21T07:36:46.859Z,3232
2017-10-21T07:37:48.307Z,3256
2017-10-21T07:38:49.768Z,3380
2017-10-21T07:39:51.989Z,3352
2017-10-21T07:40:54.087Z,3276
2017-10-21T07:41:56.172Z,3196
2017-10-21T07:42:58.370Z,3164
2017-10-21T07:44:00.474Z,3080
2017-10-21T07:45:01.910Z,3308
2017-10-21T07:46:03.683Z,3184
2017-10-21T07:47:06.425Z,3152
2017-10-21T07:48:08.542Z,3188
2017-10-21T07:49:10.939Z,3120
2017-10-21T07:50:12.976Z,3472
2017-10-21T07:51:14.893Z,4080
2017-10-21T07:52:17.075Z,4892
2017-10-21T07:53:19.196Z,5872
2017-10-21T07:54:21.260Z,6316
2017-10-21T07:55:23.330Z,5420
2017-10-21T07:56:25.403Z,4452
2017-10-21T07:57:27.450Z,4560
2017-10-21T07:58:29.228Z,4416
2017-10-21T07:59:30.753Z,3580
2017-10-21T08:00:32.776Z,3376
2017-10-21T08:01:34.811Z,3348
2017-10-21T08:02:36.885Z,3060
2017-10-21T08:03:39.021Z,3292
2017-10-21T08:04:41.116Z,3428
2017-10-21T08:05:43.122Z,3928
2017-10-21T08:06:44.554Z,4548
2017-10-21T08:07:46.097Z,4948
2017-10-21T08:08:47.562Z,4668
2017-10-21T08:09:49.007Z,4288
2017-10-21T08:10:51.670Z,4100
2017-10-21T08:11:53.165Z,4008
2017-10-21T08:12:54.751Z,4228
2017-10-21T08:13:56.338Z,5060
2017-10-21T08:14:57.822Z,5732
2017-10-21T08:15:59.331Z,5856
2017-10-21T08:17:01.379Z,6600
2017-10-21T08:18:03.494Z,7204
2017-10-21T08:19:05.596Z,7308
2017-10-21T08:20:07.598Z,7464
2017-10-21T08:21:09.042Z,7072
2017-10-21T08:22:10.970Z,7616
2017-10-21T08:23:13.140Z,9000
2017-10-21T08:24:15.251Z,10116
2017-10-21T08:25:16.762Z,10212
2017-10-21T08:26:18.204Z,9696
2017-10-21T08:27:20.959Z,9028
2017-10-21T08:28:22.822Z,7660
2017-10-21T08:29:24.340Z,6264
2017-10-21T08:30:26.290Z,5588
2017-10-21T08:31:28.191Z,5416
2017-10-21T08:32:30.007Z,5292
2017-10-21T08:33:31.535Z,4096
2017-10-21T08:34:33.455Z,3920
2017-10-21T08:35:35.512Z,5828
2017-10-21T08:36:37.442Z,7168
2017-10-21T08:37:39.497Z,7320
2017-10-21T08:38:41.590Z,6360
2017-10-21T08:39:43.722Z,5304
2017-10-21T08:40:45.890Z,5608
2017-10-21T08:41:47.966Z,7296
2017-10-21T08:42:50.025Z,8736
2017-10-21T08:43:51.598Z,8388
2017-10-21T08:44:53.611Z,7880
2017-10-21T08:45:55.144Z,6888
2017-10-21T08:46:56.693Z,6120
2017-10-21T08:47:58.164Z,5472
2017-10-21T08:49:00.396Z,4808
2017-10-21T08:50:02.101Z,4252
2017-10-21T08:51:03.536Z,3520
2017-10-21T08:52:04.931Z,3464
2017-10-21T08:53:06.317Z,3604
2017-10-21T08:54:07.711Z,3904
2017-10-21T08:55:09.088Z,4012
2017-10-21T08:56:51.475Z,3116
2017-10-21T08:57:52.845Z,2412
2017-10-21T08:58:54.219Z,3404
2017-10-21T08:59:55.595Z,4408
2017-10-21T09:00:57.115Z,4760
2017-10-21T09:01:58.492Z,4000
2017-10-21T09:02:59.863Z,3316
2017-10-21T09:04:01.239Z,4108
2017-10-21T09:05:02.619Z,4540
2017-10-21T09:06:03.992Z,5036
2017-10-21T09:07:05.421Z,5304
2017-10-21T09:08:06.794Z,5740
2017-10-21T09:09:08.172Z,4772
2017-10-21T09:10:09.556Z,4676
2017-10-21T09:11:10.925Z,5060
2017-10-21T09:12:12.305Z,4928
2017-10-21T09:13:13.681Z,4908
2017-10-21T09:14:15.055Z,5972
2017-10-21T09:15:16.436Z,7440
2017-10-21T09:16:17.835Z,7864
2017-10-21T09:17:19.221Z,8268
2017-10-21T09:18:20.620Z,7848
2017-10-21T09:19:22.282Z,6768
2017-10-21T09:20:23.894Z,6500
2017-10-21T09:21:25.299Z,6844
2017-10-21T09:22:26.810Z,8232
2017-10-21T09:23:28.248Z,7784
2017-10-21T09:24:29.659Z,6956
2017-10-21T09:25:31.146Z,6484
2017-10-21T09:26:32.583Z,7000
2017-10-21T09:27:33.982Z,7080
2017-10-21T09:28:35.549Z,6348
2017-10-21T09:29:36.974Z,6932
2017-10-21T09:30:38.430Z,7952
2017-10-21T09:31:39.830Z,7572
2017-10-21T09:32:41.314Z,6672
2017-10-21T09:33:42.809Z,6624
2017-10-21T09:34:44.226Z,6448
2017-10-21T09:35:45.607Z,5684
2017-10-21T09:36:47.214Z,5464
2017-10-21T09:37:48.916Z,5556
2017-10-21T09:38:50.341Z,5568
2017-10-21T09:39:51.934Z,6028
2017-10-21T09:40:53.384Z,6296
2017-10-21T09:41:54.829Z,6504
2017-10-21T09:42:56.219Z,6340
2017-10-21T09:43:57.635Z,5944
2017-10-21T09:44:59.028Z,5876
2017-10-21T09:46:00.419Z,6436
2017-10-21T09:47:01.851Z,7352
2017-10-21T09:48:03.265Z,8060
2017-10-21T09:49:04.738Z,8288
2017-10-21T09:50:06.131Z,8616
2017-10-21T09:51:07.561Z,8756
2017-10-21T09:52:08.945Z,9316
2017-10-21T09:53:10.324Z,9748
2017-10-21T09:54:11.759Z,9668
2017-10-21T09:55:13.206Z,9480
2017-10-21T09:56:14.614Z,9364
2017-10-21T09:57:16.028Z,9480
2017-10-21T09:58:17.447Z,9736
2017-10-21T09:59:18.883Z,9096
2017-10-21T10:00:20.276Z,8648
2017-10-21T10:01:21.857Z,8908
2017-10-21T10:02:23.313Z,9952
2017-10-21T10:03:24.706Z,10684
2017-10-21T10:05:07.080Z,10544
2017-10-21T10:06:08.457Z,9980
2017-10-21T10:07:09.854Z,10008
2017-10-21T10:08:11.206Z,11144
2017-10-21T10:09:12.583Z,10872
2017-10-21T10:10:13.970Z,11468
2017-10-21T10:11:15.357Z,12980
2017-10-21T10:12:16.736Z,14012
2017-10-21T10:13:18.116Z,14252
2017-10-21T10:14:19.544Z,12260
2017-10-21T10:15:21.028Z,10852
2017-10-21T10:16:23.217Z,11216
2017-10-21T10:17:24.719Z,10416
2017-10-21T10:18:26.994Z,10256
2017-10-21T10:19:28.651Z,11840
2017-10-21T10:20:30.682Z,11848
2017-10-21T10:21:32.326Z,11088
2017-10-21T10:23:13.692Z,8600
2017-10-21T10:24:15.099Z,8412
2017-10-21T10:25:16.481Z,9104
2017-10-21T10:26:17.901Z,10768
2017-10-21T10:27:19.406Z,11536
2017-10-21T10:28:20.923Z,10220
2017-10-21T10:29:22.578Z,8264
2017-10-21T10:30:24.213Z,7696
2017-10-21T10:31:25.674Z,8056
2017-10-21T10:32:27.197Z,8240
2017-10-21T10:33:28.665Z,8104
2017-10-21T10:34:30.237Z,7076
2017-10-21T10:35:31.666Z,5956
2017-10-21T10:36:33.107Z,5568
2017-10-21T10:37:34.508Z,5364
2017-10-21T10:38:35.939Z,5136
2017-10-21T10:39:37.399Z,4760
2017-10-21T10:40:38.855Z,4724
2017-10-21T10:41:40.334Z,4908
2017-10-21T10:42:41.869Z,4668
2017-10-21T10:43:43.472Z,4444
2017-10-21T10:44:45.092Z,4424
2017-10-21T10:45:46.578Z,4632
2017-10-21T10:46:48.034Z,5148
2017-10-21T10:47:49.583Z,6344
2017-10-21T10:48:51.315Z,6744
2017-10-21T10:49:52.906Z,6044
2017-10-21T10:50:55.032Z,6416
2017-10-21T10:51:56.768Z,7404
2017-10-21T10:52:58.766Z,5964
2017-10-21T10:54:00.245Z,4796
2017-10-21T10:55:01.697Z,5084
2017-10-21T10:56:03.102Z,5840
2017-10-21T10:57:04.532Z,6596
2017-10-21T10:58:05.945Z,6276
2017-10-21T10:59:07.391Z,6076
2017-10-21T11:00:09.060Z,6032
2017-10-21T11:01:10.578Z,6024
2017-10-21T11:02:12.119Z,5844
2017-10-21T11:03:13.882Z,5712
2017-10-21T11:04:15.524Z,4096
2017-10-21T11:05:17.681Z,5448
2017-10-21T11:06:19.732Z,5544
2017-10-21T11:07:21.649Z,5864
2017-10-21T11:08:23.225Z,5600
2017-10-21T11:09:24.724Z,6212
2017-10-21T11:10:26.366Z,5436
2017-10-21T11:11:28.046Z,5356
2017-10-21T11:12:30.281Z,5640
2017-10-21T11:13:32.026Z,6612
2017-10-21T11:14:33.474Z,6936
2017-10-21T11:15:34.933Z,6356
2017-10-21T11:16:36.897Z,5232
2017-10-21T11:17:38.745Z,5568
2017-10-21T11:18:40.229Z,6412
2017-10-21T11:19:41.976Z,6200
2017-10-21T11:20:43.441Z,7216
2017-10-21T11:21:45.202Z,6836
2017-10-21T11:22:47.115Z,7612
2017-10-21T11:23:48.584Z,6472
2017-10-21T11:24:50.393Z,5176
2017-10-21T11:25:52.537Z,4584
2017-10-21T11:26:54.630Z,4200
2017-10-21T11:27:56.112Z,4144
2017-10-21T11:28:57.834Z,4156
2017-10-21T11:29:59.389Z,4804
2017-10-21T11:31:01.207Z,5024
2017-10-21T11:32:03.388Z,4820
2017-10-21T11:33:04.962Z,3632
2017-10-21T11:34:06.483Z,2956
2017-10-21T11:35:08.034Z,2928
2017-10-21T11:36:09.611Z,3052
2017-10-21T11:37:12.021Z,3300
2017-10-21T11:38:13.714Z,4056
2017-10-21T11:39:15.222Z,5220
2017-10-21T11:40:16.962Z,10764
2017-10-21T11:41:18.707Z,15800
2017-10-21T11:42:20.912Z,17216
2017-10-21T11:43:23.235Z,17216
2017-10-21T11:44:24.867Z,19168
2017-10-21T11:45:26.528Z,18720
2017-10-21T11:46:28.537Z,17184
2017-10-21T11:47:30.669Z,15064
2017-10-21T11:48:32.938Z,16320
2017-10-21T11:49:35.241Z,17376
2017-10-21T11:50:36.787Z,17184
2017-10-21T11:51:38.263Z,16000
2017-10-21T11:52:39.715Z,14356
2017-10-21T11:53:41.216Z,12412
2017-10-21T11:54:42.699Z,11296
2017-10-21T11:55:44.451Z,11240
2017-10-21T11:56:46.612Z,11336
2017-10-21T11:57:48.905Z,10848
2017-10-21T11:58:50.517Z,10460
2017-10-21T11:59:52.021Z,11392
2017-10-21T12:00:53.518Z,10956
2017-10-21T12:01:55.312Z,11304
2017-10-21T12:02:57.400Z,11812
2017-10-21T12:03:59.752Z,10872
2017-10-21T12:05:01.827Z,9020
2017-10-21T12:06:03.969Z,8480
2017-10-21T12:07:05.561Z,8076
2017-10-21T12:08:07.150Z,8376
2017-10-21T12:09:08.678Z,8376
2017-10-21T12:10:10.134Z,8860
2017-10-21T12:11:11.621Z,9104
2017-10-21T12:12:13.896Z,8660
2017-10-21T12:13:15.694Z,8308
2017-10-21T12:14:17.244Z,8440
2017-10-21T12:15:18.772Z,8496
2017-10-21T12:16:20.228Z,8988
2017-10-21T12:17:22.150Z,9484
2017-10-21T12:18:24.260Z,9524
2017-10-21T12:19:25.802Z,9104
2017-10-21T12:20:27.300Z,9796
2017-10-21T12:21:28.847Z,10640
2017-10-21T12:22:30.558Z,12184
2017-10-21T12:23:32.056Z,12064
2017-10-21T12:24:33.576Z,11444
2017-10-21T12:25:35.044Z,11396
2017-10-21T12:26:36.789Z,11704
2017-10-21T12:27:38.304Z,12396
2017-10-21T12:29:24.689Z,14236
2017-10-21T12:30:25.885Z,14952
2017-10-21T12:31:27.504Z,14620
2017-10-21T12:32:29.044Z,14312
2017-10-21T12:33:30.511Z,14376
2017-10-21T12:34:32.020Z,12692
2017-10-21T12:35:34.087Z,11068
2017-10-21T12:36:36.293Z,10268
2017-10-21T12:37:38.733Z,9852
2017-10-21T12:38:40.306Z,9648
2017-10-21T12:39:41.773Z,10208
2017-10-21T12:40:44.008Z,10992
2017-10-21T12:41:46.312Z,11344
2017-10-21T12:42:47.785Z,12100
2017-10-21T12:43:49.525Z,12548
2017-10-21T12:44:51.261Z,13640
2017-10-21T12:45:53.015Z,14548
2017-10-21T12:46:54.738Z,14352
2017-10-21T12:48:37.503Z,14920
2017-10-21T12:49:38.843Z,13820
2017-10-21T12:50:40.237Z,11904
2017-10-21T12:51:41.640Z,10072
2017-10-21T12:52:43.438Z,8628
2017-10-21T12:53:44.788Z,7600
2017-10-21T12:54:46.468Z,9564
2017-10-21T12:55:47.977Z,11356
2017-10-21T12:56:49.789Z,11648
2017-10-21T12:57:51.258Z,9552
2017-10-21T12:58:52.861Z,7840
2017-10-21T12:59:54.309Z,8940
2017-10-21T13:00:55.830Z,11228
2017-10-21T13:02:40.536Z,12832
2017-10-21T13:03:42.029Z,20704
2017-10-21T13:04:44.463Z,16160
2017-10-21T13:05:46.187Z,23040
2017-10-21T13:06:48.503Z,26144
2017-10-21T13:07:50.548Z,23456
2017-10-21T13:08:52.429Z,19712
2017-10-21T13:09:53.894Z,19680
2017-10-21T13:10:55.398Z,17632
2017-10-21T13:11:57.758Z,19424
2017-10-21T13:12:59.309Z,17152
2017-10-21T13:14:00.797Z,16448
2017-10-21T13:15:02.797Z,18464
2017-10-21T13:16:04.362Z,19136
2017-10-21T13:17:05.924Z,10036
2017-10-21T13:18:07.475Z,10744
2017-10-21T13:19:08.970Z,8292
2017-10-21T13:20:10.426Z,7820
2017-10-21T13:21:52.813Z,8456
2017-10-21T13:22:54.205Z,7804
2017-10-21T13:23:55.583Z,8780
2017-10-21T13:24:57.517Z,7504
2017-10-21T13:25:59.525Z,6024
2017-10-21T13:27:00.994Z,5640
2017-10-21T13:28:03.582Z,6660
2017-10-21T13:29:05.059Z,8664
2017-10-21T13:30:06.730Z,10096
2017-10-21T13:31:08.144Z,10732
2017-10-21T13:32:09.582Z,9456
2017-10-21T13:33:51.944Z,9048
2017-10-21T13:34:53.331Z,8388
2017-10-21T13:35:55.932Z,7908
2017-10-21T13:36:57.388Z,8760
2017-10-21T13:37:59.501Z,9156
2017-10-21T13:39:01.188Z,8776
2017-10-21T13:40:02.662Z,8500
2017-10-21T13:41:04.114Z,8180
2017-10-21T13:42:05.579Z,7276
2017-10-21T13:43:07.055Z,6004
2017-10-21T13:44:08.505Z,5012
2017-10-21T13:45:09.923Z,5100
2017-10-21T13:46:11.638Z,4896
2017-10-21T13:47:13.311Z,4768
2017-10-21T13:48:14.853Z,6724
2017-10-21T13:49:16.255Z,7880
2017-10-21T13:50:17.939Z,7556
2017-10-21T13:51:19.745Z,7676
2017-10-21T13:52:21.193Z,7872
2017-10-21T13:53:22.678Z,7916
2017-10-21T13:54:24.412Z,7416
2017-10-21T13:55:26.103Z,7860
2017-10-21T13:56:27.712Z,8268
2017-10-21T13:57:29.166Z,7500
2017-10-21T13:58:30.632Z,6744
2017-10-21T13:59:32.336Z,5948
2017-10-21T14:00:33.970Z,5696
2017-10-21T14:01:35.578Z,5764
2017-10-21T14:02:37.187Z,5628
2017-10-21T14:03:38.636Z,5640
2017-10-21T14:04:40.064Z,5696
2017-10-21T14:05:41.523Z,5668
2017-10-21T14:06:43.073Z,6348
2017-10-21T14:07:44.643Z,6724
2017-10-21T14:08:46.059Z,6164
2017-10-21T14:09:47.512Z,6296
2017-10-21T14:10:48.938Z,6060
2017-10-21T14:11:51.495Z,5172
2017-10-21T14:12:52.976Z,5124
2017-10-21T14:13:54.708Z,5228
2017-10-21T14:14:56.191Z,5576
2017-10-21T14:15:57.681Z,5572
2017-10-21T14:16:59.311Z,4996
2017-10-21T14:18:01.037Z,5240
2017-10-21T14:19:02.570Z,5300
2017-10-21T14:20:03.961Z,4608
2017-10-21T14:21:05.532Z,4260
2017-10-21T14:22:07.750Z,4024
2017-10-21T14:23:10.205Z,3980
2017-10-21T14:24:13.233Z,3812
2017-10-21T14:25:15.503Z,4148
2017-10-21T14:26:18.155Z,4220
2017-10-21T14:27:19.600Z,3684
2017-10-21T14:28:21.180Z,2644
2017-10-21T14:29:22.638Z,2124
2017-10-21T14:30:25.022Z,2316
2017-10-21T14:31:27.022Z,2832
2017-10-21T14:32:28.795Z,3068
2017-10-21T14:33:30.618Z,2988
2017-10-21T14:34:32.766Z,3020
2017-10-21T14:35:34.770Z,3092
2017-10-21T14:36:36.217Z,3256
2017-10-21T14:37:37.715Z,3756
2017-10-21T14:38:39.225Z,5304
2017-10-21T14:39:41.022Z,9048
2017-10-21T14:40:42.759Z,9524
2017-10-21T14:41:44.795Z,6504
2017-10-21T14:42:46.225Z,6144
2017-10-21T14:43:47.779Z,8116
2017-10-21T14:44:49.285Z,8336
2017-10-21T14:45:50.787Z,7028
2017-10-21T14:46:52.748Z,7504
2017-10-21T14:47:55.109Z,7604
2017-10-21T14:48:56.975Z,6752
2017-10-21T14:49:58.678Z,7180
2017-10-21T14:51:00.104Z,7192
2017-10-21T14:52:01.806Z,6004
2017-10-21T14:53:03.730Z,4576
2017-10-21T14:54:05.549Z,3304
2017-10-21T14:55:07.425Z,3372
2017-10-21T14:56:09.308Z,4196
2017-10-21T14:57:11.979Z,3860
2017-10-21T14:58:14.008Z,3828
2017-10-21T14:59:16.044Z,4396
2017-10-21T15:00:17.473Z,4556
2017-10-21T15:01:19.572Z,3612
2017-10-21T15:02:21.503Z,2652
2017-10-21T15:03:23.643Z,2224
2017-10-21T15:04:25.499Z,2140
2017-10-21T15:05:27.314Z,2124
2017-10-21T15:06:29.856Z,2072
2017-10-21T15:07:32.815Z,2116
2017-10-21T15:08:34.301Z,2448
2017-10-21T15:09:36.033Z,2480
2017-10-21T15:10:38.553Z,2828
2017-10-21T15:11:41.536Z,3252
2017-10-21T15:12:42.968Z,3620
2017-10-21T15:13:44.704Z,3444
2017-10-21T15:14:46.172Z,2872
2017-10-21T15:15:47.685Z,2040
2017-10-21T15:16:49.438Z,1484
2017-10-21T15:17:51.443Z,1260
2017-10-21T15:18:52.907Z,1080
2017-10-21T15:19:54.384Z,1016
2017-10-21T15:20:55.818Z,1080
2017-10-21T15:21:57.312Z,1196
2017-10-21T15:22:58.730Z,1100
2017-10-21T15:24:00.532Z,820
2017-10-21T15:25:02.458Z,588
2017-10-21T15:26:04.688Z,472
2017-10-21T15:27:46.892Z,320
2017-10-21T15:28:49.302Z,284
2017-10-21T15:30:12.952Z,348
2017-10-21T15:31:14.319Z,340
2017-10-21T15:32:17.242Z,300
2017-10-21T15:33:18.893Z,300
2017-10-21T15:34:20.825Z,308
2017-10-21T15:35:23.712Z,316
2017-10-21T15:36:25.579Z,356
2017-10-21T15:37:27.445Z,356
2017-10-21T15:38:29.178Z,352
2017-10-21T15:39:30.737Z,352
2017-10-21T15:40:32.259Z,304
2017-10-21T15:41:33.689Z,304
2017-10-21T15:42:35.167Z,320
2017-10-21T15:43:36.624Z,408
2017-10-21T15:44:38.805Z,516
2017-10-21T15:45:40.757Z,548
2017-10-21T15:46:42.258Z,528
2017-10-21T15:47:44.255Z,460
2017-10-21T15:48:46.299Z,380
2017-10-21T15:49:48.167Z,280
2017-10-21T15:50:49.636Z,220
2017-10-21T15:51:52.748Z,180
2017-10-21T15:52:54.227Z,196
2017-10-21T15:53:56.321Z,236
2017-10-21T15:54:58.741Z,348
2017-10-21T15:56:00.659Z,504
2017-10-21T15:57:02.732Z,672
2017-10-21T15:58:04.671Z,812
2017-10-21T15:59:06.603Z,876
2017-10-21T16:00:08.772Z,796
2017-10-21T16:01:10.704Z,752
2017-10-21T16:02:12.881Z,744
2017-10-21T16:03:14.626Z,732
2017-10-21T16:04:16.441Z,680
2017-10-21T16:05:18.161Z,616
2017-10-21T16:06:19.668Z,568
2017-10-21T16:07:21.113Z,540
2017-10-21T16:08:23.665Z,524
2017-10-21T16:09:25.689Z,512
2017-10-21T16:10:27.197Z,480
2017-10-21T16:11:29.246Z,448
2017-10-21T16:12:31.606Z,420
2017-10-21T16:13:33.142Z,388
2017-10-21T16:14:35.073Z,360
2017-10-21T16:15:37.105Z,336
2017-10-21T16:16:39.067Z,328
2017-10-21T16:17:41.090Z,320
2017-10-21T16:18:42.541Z,284
2017-10-21T16:19:43.986Z,244
2017-10-21T16:20:45.594Z,212
2017-10-21T16:21:47.040Z,196
2017-10-21T16:22:48.487Z,172
2017-10-21T16:23:49.920Z,160
2017-10-21T16:24:51.694Z,152
2017-10-21T16:25:53.368Z,132
2017-10-21T16:27:38.090Z,116
2017-10-21T16:28:39.925Z,100
2017-10-21T16:29:41.423Z,84
2017-10-21T16:30:43.430Z,72
2017-10-21T16:31:46.204Z,64
2017-10-21T16:32:49.348Z,48
2017-10-21T16:33:51.215Z,44
2017-10-21T16:34:52.980Z,40
2017-10-21T16:35:55.270Z,32
2017-10-21T16:36:58.467Z,28
2017-10-21T16:37:59.988Z,24
2017-10-21T16:39:01.391Z,16
2017-10-21T16:40:04.302Z,16
2017-10-21T16:41:07.579Z,12
2017-10-21T16:42:09.830Z,12
2017-10-21T16:43:11.331Z,8
2017-10-21T16:44:13.231Z,8
2017-10-21T16:45:15.746Z,4
2017-10-21T16:46:58.755Z,4
2017-10-21T16:48:00.302Z,4
2017-10-21T16:49:03.009Z,4
2017-10-21T16:50:04.747Z,4
2017-10-21T16:51:06.889Z,4
2017-10-21T16:52:09.279Z,0
2017-10-21T16:53:10.751Z,4
2017-10-21T16:54:13.292Z,0
2017-10-21T16:55:14.685Z,4
2017-10-21T16:56:16.098Z,0
2017-10-21T16:57:18.097Z,0
2017-10-21T16:58:19.788Z,0
2017-10-21T16:59:22.538Z,0
2017-10-21T17:00:24.388Z,0
2017-10-21T17:01:26.495Z,0
2017-10-21T17:02:28.680Z,0
2017-10-21T17:03:30.220Z,0
2017-10-21T17:04:32.297Z,0
2017-10-21T17:05:34.566Z,0
2017-10-21T17:06:36.530Z,0
2017-10-21T17:07:38.226Z,0
2017-10-21T17:08:40.488Z,0
2017-10-21T17:09:41.987Z,0
2017-10-21T17:10:45.058Z,0
2017-10-21T17:11:47.087Z,0
2017-10-21T17:12:49.305Z,0
2017-10-21T17:13:51.536Z,0
2017-10-21T17:14:53.717Z,0
2017-10-21T17:15:55.920Z,0
2017-10-21T17:16:58.574Z,0
2017-10-21T17:18:00.174Z,0
2017-10-21T17:19:01.600Z,0
2017-10-21T17:20:03.030Z,0
2017-10-21T17:21:04.533Z,0
2017-10-21T17:22:05.884Z,0
2017-10-21T17:23:07.431Z,0
2017-10-21T17:24:09.200Z,0
2017-10-21T17:25:10.940Z,0
2017-10-21T17:26:12.369Z,0
2017-10-21T17:27:13.784Z,0
2017-10-21T17:28:15.182Z,0
2017-10-21T17:29:16.557Z,0
2017-10-21T17:30:17.980Z,0
2017-10-21T17:31:19.364Z,0
2017-10-21T17:32:20.745Z,0
2017-10-21T17:33:22.122Z,0
2017-10-21T17:34:23.513Z,0
2017-10-21T17:35:24.900Z,0
2017-10-21T17:36:26.412Z,0
2017-10-21T17:37:27.789Z,0
2017-10-21T17:38:29.266Z,0
2017-10-21T17:40:11.637Z,0
2017-10-21T17:41:13.006Z,0
2017-10-21T17:42:14.382Z,0
2017-10-21T17:43:15.773Z,0
2017-10-21T17:44:17.136Z,0
2017-10-21T17:45:18.512Z,0
2017-10-21T17:46:19.882Z,0
2017-10-21T17:47:21.330Z,0